createdAt,value
2019-03-30T00:01:53.745Z,9.45
2019-03-30T00:06:59.679Z,25.17
2019-03-30T00:12:05.605Z,17.35
2019-03-30T00:17:11.756Z,15.63
2019-03-30T00:22:17.680Z,15.97
2019-03-30T00:27:23.535Z,19.25
2019-03-30T00:32:29.577Z,15.40
2019-03-30T00:37:35.971Z,15.68
2019-03-30T00:42:42.219Z,12.47
2019-03-30T00:47:48.811Z,11.43
2019-03-30T00:52:54.807Z,12.17
2019-03-30T00:58:00.948Z,12.60
2019-03-30T01:03:06.735Z,13.07
2019-03-30T01:08:12.651Z,13.03
2019-03-30T01:13:18.835Z,15.00
2019-03-30T01:18:24.778Z,12.93
2019-03-30T01:23:30.863Z,12.20
2019-03-30T01:28:36.794Z,14.70
2019-03-30T01:33:42.751Z,12.33
2019-03-30T01:38:48.976Z,10.53
2019-03-30T01:43:55.138Z,13.23
2019-03-30T01:49:01.041Z,11.85
2019-03-30T01:54:07.053Z,9.80
2019-03-30T01:59:13.011Z,10.08
2019-03-30T02:04:19.269Z,12.33
2019-03-30T02:09:25.203Z,10.50
2019-03-30T02:14:31.359Z,11.80
2019-03-30T02:19:37.314Z,10.78
2019-03-30T02:24:43.216Z,10.25
2019-03-30T02:29:49.331Z,11.07
2019-03-30T02:34:55.135Z,9.48
2019-03-30T02:40:01.214Z,9.60
2019-03-30T02:45:07.184Z,9.70
2019-03-30T02:50:13.110Z,9.48
2019-03-30T02:55:18.987Z,9.00
2019-03-30T03:00:24.854Z,10.20
2019-03-30T03:05:30.835Z,10.03
2019-03-30T03:10:36.939Z,9.13
2019-03-30T03:15:43.038Z,8.97
2019-03-30T03:21:06.130Z,9.50
2019-03-30T03:25:56.829Z,8.13
2019-03-30T03:31:02.663Z,10.25
2019-03-30T03:36:08.581Z,8.60
2019-03-30T03:41:14.434Z,8.75
2019-03-30T03:46:20.300Z,8.93
2019-03-30T03:51:26.909Z,9.63
2019-03-30T03:56:35.164Z,8.70
2019-03-30T04:01:41.687Z,8.70
2019-03-30T04:06:50.069Z,9.03
2019-03-30T04:11:58.195Z,8.90
2019-03-30T04:17:04.470Z,8.78
2019-03-30T04:22:10.375Z,9.33
2019-03-30T04:27:16.151Z,9.95
2019-03-30T04:32:22.999Z,8.63
2019-03-30T04:37:28.868Z,9.38
2019-03-30T04:42:34.840Z,8.75
2019-03-30T04:47:40.742Z,8.75
2019-03-30T04:52:46.560Z,8.70
2019-03-30T04:57:52.354Z,9.67
2019-03-30T05:02:58.199Z,10.08
2019-03-30T05:08:04.031Z,8.80
2019-03-30T05:13:10.170Z,9.23
2019-03-30T05:18:16.077Z,8.55
2019-03-30T05:23:22.956Z,9.50
2019-03-30T05:28:28.949Z,8.25
2019-03-30T05:33:35.886Z,8.47
2019-03-30T05:38:41.853Z,8.75
2019-03-30T05:43:47.644Z,10.10
2019-03-30T05:48:53.560Z,8.90
2019-03-30T05:53:59.517Z,9.03
2019-03-30T05:59:06.605Z,8.07
2019-03-30T06:04:12.895Z,9.43
2019-03-30T06:09:18.834Z,8.83
2019-03-30T06:14:25.090Z,9.60
2019-03-30T06:19:30.982Z,9.25
2019-03-30T06:24:36.888Z,8.83
2019-03-30T06:29:42.841Z,11.63
2019-03-30T06:34:49.072Z,10.08
2019-03-30T06:40:12.034Z,9.65
2019-03-30T06:45:17.909Z,10.03
2019-03-30T06:50:23.816Z,9.68
2019-03-30T06:55:30.035Z,12.05
2019-03-30T07:00:39.129Z,12.50
2019-03-30T07:05:45.634Z,14.47
2019-03-30T07:10:51.541Z,12.70
2019-03-30T07:15:59.959Z,11.00
2019-03-30T07:21:06.114Z,13.48
2019-03-30T07:26:12.277Z,11.73
2019-03-30T07:31:18.179Z,11.08
2019-03-30T07:36:24.268Z,12.35
2019-03-30T07:41:30.158Z,12.18
2019-03-30T07:46:37.877Z,11.85
2019-03-30T07:51:43.852Z,11.57
2019-03-30T07:57:03.906Z,13.03
2019-03-30T08:01:57.300Z,12.05
2019-03-30T08:07:03.283Z,11.83
2019-03-30T08:12:09.176Z,12.43
2019-03-30T08:17:15.428Z,13.30
2019-03-30T08:22:22.127Z,13.35
2019-03-30T08:27:27.911Z,14.43
2019-03-30T08:32:33.729Z,16.65
2019-03-30T08:37:39.633Z,14.07
2019-03-30T08:42:45.852Z,15.20
2019-03-30T08:47:51.687Z,14.17
2019-03-30T08:52:57.804Z,14.63
2019-03-30T08:58:03.688Z,14.25
2019-03-30T09:03:09.728Z,15.78
2019-03-30T09:08:15.681Z,14.20
2019-03-30T09:13:21.588Z,14.00
2019-03-30T09:18:27.555Z,13.65
2019-03-30T09:23:33.431Z,15.25
2019-03-30T09:28:40.195Z,14.37
2019-03-30T09:33:46.551Z,14.20
2019-03-30T09:38:52.995Z,14.38
2019-03-30T09:43:58.991Z,15.20
2019-03-30T09:49:05.105Z,13.53
2019-03-30T09:54:23.049Z,13.83
2019-03-30T09:59:18.531Z,14.05
2019-03-30T10:04:24.813Z,14.80
2019-03-30T10:09:30.788Z,14.53
2019-03-30T10:14:36.694Z,14.75
2019-03-30T10:19:43.020Z,15.03
2019-03-30T10:24:48.889Z,14.30
2019-03-30T10:29:54.921Z,17.37
2019-03-30T10:35:01.354Z,16.75
2019-03-30T10:40:08.068Z,15.45
2019-03-30T10:45:15.237Z,15.25
2019-03-30T10:50:21.233Z,15.43
2019-03-30T10:55:27.104Z,14.93
2019-03-30T11:00:37.639Z,15.57
2019-03-30T11:05:43.806Z,13.03
2019-03-30T11:10:51.033Z,13.18
2019-03-30T11:15:56.930Z,13.38
2019-03-30T11:21:02.894Z,13.35
2019-03-30T11:26:09.851Z,11.40
2019-03-30T11:31:16.245Z,10.82
2019-03-30T11:36:22.072Z,11.20
2019-03-30T11:41:28.887Z,12.45
2019-03-30T11:46:34.753Z,9.93
2019-03-30T11:51:41.475Z,7.65
2019-03-30T11:56:47.309Z,8.85
2019-03-30T12:01:54.547Z,10.98
2019-03-30T12:07:00.676Z,8.23
2019-03-30T12:12:06.500Z,11.48
2019-03-30T12:17:13.355Z,9.63
2019-03-30T12:22:19.209Z,11.53
2019-03-30T12:27:25.454Z,12.88
2019-03-30T12:32:31.560Z,14.28
2019-03-30T12:37:37.430Z,11.33
2019-03-30T12:48:54.679Z,6.90
2019-03-30T12:54:02.302Z,5.75
2019-03-30T12:59:08.194Z,7.13
2019-03-30T13:04:14.076Z,5.33
2019-03-30T13:09:20.073Z,7.10
2019-03-30T13:14:26.231Z,8.40
2019-03-30T13:19:32.168Z,6.65
2019-03-30T13:24:38.035Z,6.40
2019-03-30T13:29:44.334Z,6.80
2019-03-30T13:34:50.300Z,4.97
2019-03-30T13:39:56.150Z,5.03
2019-03-30T13:45:03.773Z,8.48
2019-03-30T13:50:11.023Z,6.40
2019-03-30T13:55:16.892Z,7.70
2019-03-30T14:00:22.764Z,6.33
2019-03-30T14:05:29.006Z,6.87
2019-03-30T14:10:34.976Z,7.15
2019-03-30T14:15:41.111Z,6.33
2019-03-30T14:20:47.002Z,4.47
2019-03-30T14:25:53.296Z,5.27
2019-03-30T14:30:59.278Z,5.80
2019-03-30T14:36:06.487Z,6.37
2019-03-30T14:41:12.682Z,4.78
2019-03-30T14:46:18.571Z,5.60
2019-03-30T14:51:24.515Z,5.83
2019-03-30T14:56:44.545Z,7.30
2019-03-30T15:01:38.320Z,6.62
2019-03-30T15:06:44.995Z,6.20
2019-03-30T15:11:51.016Z,7.03
2019-03-30T15:16:56.865Z,5.40
2019-03-30T15:22:02.667Z,5.35
2019-03-30T15:27:08.590Z,6.00
2019-03-30T15:32:14.611Z,5.03
2019-03-30T15:37:20.431Z,4.95
2019-03-30T15:42:26.417Z,4.78
2019-03-30T15:47:32.344Z,4.60
2019-03-30T15:52:38.510Z,5.05
2019-03-30T15:57:44.660Z,5.70
2019-03-30T16:02:50.578Z,5.62
2019-03-30T16:07:57.409Z,6.47
2019-03-30T16:13:03.231Z,7.03
2019-03-30T16:18:09.090Z,5.40
2019-03-30T16:23:14.914Z,5.10
2019-03-30T16:28:20.791Z,5.12
2019-03-30T16:33:27.010Z,5.53
2019-03-30T16:38:32.843Z,5.90
2019-03-30T16:43:39.188Z,4.87
2019-03-30T16:48:45.367Z,4.17
2019-03-30T16:53:51.203Z,4.03
2019-03-30T16:58:57.031Z,4.70
2019-03-30T17:04:02.942Z,5.05
2019-03-30T17:09:09.593Z,4.90
2019-03-30T17:14:15.482Z,6.62
2019-03-30T17:19:22.887Z,4.75
2019-03-30T17:24:29.244Z,5.10
2019-03-30T17:29:35.378Z,5.75
2019-03-30T17:34:41.557Z,6.60
2019-03-30T17:39:47.442Z,6.93
2019-03-30T17:44:53.369Z,6.72
2019-03-30T17:49:59.142Z,12.13
2019-03-30T17:55:05.299Z,10.25
2019-03-30T18:00:14.055Z,6.05
2019-03-30T18:05:19.917Z,8.98
2019-03-30T18:10:26.828Z,6.40
2019-03-30T18:15:34.658Z,8.10
2019-03-30T18:20:40.912Z,11.05
2019-03-30T18:25:47.265Z,11.97
2019-03-30T18:30:53.285Z,9.73
2019-03-30T18:35:59.894Z,10.07
2019-03-30T18:41:05.830Z,8.90
2019-03-30T18:46:11.760Z,7.93
2019-03-30T18:51:18.329Z,8.68
2019-03-30T18:56:27.776Z,7.55
2019-03-30T19:01:32.041Z,9.08
2019-03-30T19:06:38.197Z,8.90
2019-03-30T19:11:44.090Z,8.37
2019-03-30T19:16:50.066Z,11.10
2019-03-30T19:21:55.958Z,14.18
2019-03-30T19:27:03.020Z,10.60
2019-03-30T19:32:09.068Z,8.60
2019-03-30T19:37:14.933Z,8.70
2019-03-30T19:42:20.753Z,8.80
2019-03-30T19:47:26.562Z,8.65
2019-03-30T19:52:39.712Z,11.00
2019-03-30T19:57:40.118Z,10.80
2019-03-30T20:02:45.926Z,12.25
2019-03-30T20:07:51.810Z,12.80
2019-03-30T20:12:57.844Z,13.68
2019-03-30T20:18:03.647Z,14.50
2019-03-30T20:23:09.533Z,12.07
2019-03-30T20:28:15.684Z,13.30
2019-03-30T20:33:21.552Z,13.75
2019-03-30T20:38:29.930Z,12.80
2019-03-30T20:43:37.527Z,16.07
2019-03-30T20:54:42.684Z,13.30
2019-03-30T20:59:48.507Z,13.37
2019-03-30T21:04:54.704Z,11.93
2019-03-30T21:10:01.735Z,12.05
2019-03-30T21:15:08.153Z,12.25
2019-03-30T21:20:14.675Z,15.05
2019-03-30T21:25:20.746Z,14.43
2019-03-30T21:30:26.702Z,15.83
2019-03-30T21:35:32.944Z,15.00
2019-03-30T21:40:38.876Z,18.90
2019-03-30T21:45:44.899Z,11.87
2019-03-30T21:50:50.734Z,17.30
2019-03-30T21:55:57.287Z,20.82
2019-03-30T22:01:03.223Z,33.85
2019-03-30T22:06:09.111Z,21.43
2019-03-30T22:11:15.013Z,11.87
2019-03-30T22:16:20.862Z,10.78
2019-03-30T22:21:27.132Z,10.60
2019-03-30T22:26:33.237Z,16.57
2019-03-30T22:31:39.066Z,14.50
2019-03-30T22:36:44.945Z,14.38
2019-03-30T22:41:51.354Z,9.58
2019-03-30T22:46:57.179Z,10.73
2019-03-30T22:52:12.129Z,10.98
2019-03-30T22:57:18.069Z,11.85
2019-03-30T23:02:23.921Z,15.90
2019-03-30T23:07:29.763Z,15.03
2019-03-30T23:12:35.622Z,14.58
2019-03-30T23:17:41.538Z,12.07
2019-03-30T23:22:47.502Z,11.50
2019-03-30T23:27:53.458Z,11.47
2019-03-30T23:32:59.679Z,16.10
2019-03-30T23:38:05.823Z,12.82
2019-03-30T23:43:12.057Z,12.75
2019-03-30T23:48:18.138Z,13.10
2019-03-30T23:53:24.023Z,13.88
2019-03-30T23:58:29.875Z,20.68
